createdAt,value
2019-02-17T00:00:27.915Z,1018.37
2019-02-17T00:01:27.894Z,1018.41
2019-02-17T00:02:27.913Z,1018.44
2019-02-17T00:03:27.872Z,1018.36
2019-02-17T00:04:27.872Z,1018.39
2019-02-17T00:05:27.894Z,1018.36
2019-02-17T00:06:27.838Z,1018.34
2019-02-17T00:07:27.826Z,1018.36
2019-02-17T00:08:27.818Z,1018.35
2019-02-17T00:09:27.808Z,1018.34
2019-02-17T00:10:27.801Z,1018.31
2019-02-17T00:11:27.801Z,1018.32
2019-02-17T00:12:27.778Z,1018.32
2019-02-17T00:13:27.767Z,1018.37
2019-02-17T00:14:27.749Z,1018.37
2019-02-17T00:15:27.749Z,1018.34
2019-02-17T00:16:27.726Z,1018.31
2019-02-17T00:17:27.724Z,1018.31
2019-02-17T00:18:27.711Z,1018.38
2019-02-17T00:19:27.714Z,1018.30
2019-02-17T00:20:27.700Z,1018.33
2019-02-17T00:21:27.697Z,1018.33
2019-02-17T00:22:27.669Z,1018.36
2019-02-17T00:23:27.650Z,1018.40
2019-02-17T00:24:27.638Z,1018.37
2019-02-17T00:25:27.676Z,1018.42
2019-02-17T00:26:27.617Z,1018.39
2019-02-17T00:27:27.751Z,1018.40
2019-02-17T00:28:27.592Z,1018.41
2019-02-17T00:29:27.618Z,1018.42
2019-02-17T00:30:27.581Z,1018.38
2019-02-17T00:31:27.560Z,1018.40
2019-02-17T00:32:27.549Z,1018.38
2019-02-17T00:33:27.542Z,1018.33
2019-02-17T00:34:27.553Z,1018.34
2019-02-17T00:35:27.529Z,1018.29
2019-02-17T00:36:27.511Z,1018.29
2019-02-17T00:37:27.530Z,1018.31
2019-02-17T00:38:27.482Z,1018.27
2019-02-17T00:39:27.473Z,1018.27
2019-02-17T00:40:27.504Z,1018.27
2019-02-17T00:41:27.463Z,1018.25
2019-02-17T00:42:27.439Z,1018.23
2019-02-17T00:43:27.506Z,1018.24
2019-02-17T00:44:27.456Z,1018.26
2019-02-17T00:45:27.407Z,1018.25
2019-02-17T00:46:27.406Z,1018.20
2019-02-17T00:47:27.383Z,1018.19
2019-02-17T00:48:27.397Z,1018.18
2019-02-17T00:49:27.377Z,1018.17
2019-02-17T00:50:27.362Z,1018.15
2019-02-17T00:51:27.364Z,1018.13
2019-02-17T00:52:27.346Z,1018.12
2019-02-17T00:53:27.318Z,1018.11
2019-02-17T00:54:27.327Z,1018.13
2019-02-17T00:55:27.301Z,1018.14
2019-02-17T00:56:27.293Z,1018.07
2019-02-17T00:57:27.339Z,1018.11
2019-02-17T00:58:27.261Z,1018.12
2019-02-17T00:59:27.255Z,1018.09
2019-02-17T01:00:27.257Z,1018.08
2019-02-17T01:01:27.263Z,1018.12
2019-02-17T01:02:27.224Z,1018.11
2019-02-17T01:03:27.215Z,1018.11
2019-02-17T01:04:27.204Z,1018.12
2019-02-17T01:05:27.188Z,1018.13
2019-02-17T01:06:27.190Z,1018.14
2019-02-17T01:07:27.194Z,1018.13
2019-02-17T01:08:27.171Z,1018.13
2019-02-17T01:09:27.154Z,1018.12
2019-02-17T01:10:27.138Z,1018.10
2019-02-17T01:11:27.243Z,1018.13
2019-02-17T01:12:27.157Z,1018.13
2019-02-17T01:13:27.115Z,1018.13
2019-02-17T01:14:27.097Z,1018.08
2019-02-17T01:15:27.100Z,1018.10
2019-02-17T01:16:27.100Z,1018.07
2019-02-17T01:17:27.064Z,1018.08
2019-02-17T01:18:27.045Z,1018.10
2019-02-17T01:19:27.066Z,1018.11
2019-02-17T01:20:27.027Z,1018.09
2019-02-17T01:21:27.035Z,1018.09
2019-02-17T01:22:27.007Z,1018.08
2019-02-17T01:23:26.995Z,1018.06
2019-02-17T01:24:27.016Z,1018.06
2019-02-17T01:25:27.015Z,1018.07
2019-02-17T01:26:26.991Z,1018.04
2019-02-17T01:27:26.986Z,1018.03
2019-02-17T01:28:26.934Z,1018.02
2019-02-17T01:29:26.928Z,1018.05
2019-02-17T01:30:26.913Z,1018.03
2019-02-17T01:31:26.923Z,1018.04
2019-02-17T01:32:26.924Z,1018.00
2019-02-17T01:33:26.882Z,1018.01
2019-02-17T01:34:26.869Z,1018.03
2019-02-17T01:35:26.856Z,1018.04
2019-02-17T01:36:26.862Z,1018.00
2019-02-17T01:37:26.856Z,1017.98
2019-02-17T01:38:26.840Z,1017.99
2019-02-17T01:39:26.898Z,1017.98
2019-02-17T01:40:26.806Z,1018.00
2019-02-17T01:41:26.793Z,1017.98
2019-02-17T01:42:26.830Z,1018.04
2019-02-17T01:43:26.768Z,1018.01
2019-02-17T01:44:26.757Z,1017.99
2019-02-17T01:45:26.758Z,1017.91
2019-02-17T01:46:26.738Z,1017.96
2019-02-17T01:47:26.750Z,1017.93
2019-02-17T01:48:26.717Z,1017.95
2019-02-17T01:49:26.701Z,1017.96
2019-02-17T01:50:26.707Z,1017.92
2019-02-17T01:51:26.679Z,1017.95
2019-02-17T01:52:26.684Z,1017.99
2019-02-17T01:53:26.655Z,1017.92
2019-02-17T01:54:26.651Z,1017.95
2019-02-17T01:55:26.634Z,1017.94
2019-02-17T01:56:26.627Z,1017.92
2019-02-17T01:57:26.738Z,1017.94
2019-02-17T01:58:26.600Z,1017.88
2019-02-17T01:59:30.586Z,1017.91
2019-02-17T02:00:26.578Z,1017.85
2019-02-17T02:01:26.568Z,1017.92
2019-02-17T02:02:26.563Z,1017.87
2019-02-17T02:03:26.551Z,1017.84
2019-02-17T02:04:26.566Z,1017.85
2019-02-17T02:05:26.525Z,1017.87
2019-02-17T02:06:26.517Z,1017.85
2019-02-17T02:07:26.511Z,1017.83
2019-02-17T02:08:26.487Z,1017.83
2019-02-17T02:09:26.484Z,1017.82
2019-02-17T02:10:26.526Z,1017.79
2019-02-17T02:11:26.461Z,1017.78
2019-02-17T02:12:26.458Z,1017.78
2019-02-17T02:13:26.434Z,1017.79
2019-02-17T02:14:26.436Z,1017.75
2019-02-17T02:15:26.428Z,1017.72
2019-02-17T02:16:26.400Z,1017.70
2019-02-17T02:17:26.429Z,1017.68
2019-02-17T02:18:26.377Z,1017.65
2019-02-17T02:19:26.378Z,1017.66
2019-02-17T02:20:26.355Z,1017.64
2019-02-17T02:21:26.345Z,1017.66
2019-02-17T02:22:26.340Z,1017.67
2019-02-17T02:23:26.337Z,1017.65
2019-02-17T02:24:26.311Z,1017.65
2019-02-17T02:25:26.303Z,1017.62
2019-02-17T02:26:26.293Z,1017.63
2019-02-17T02:27:26.364Z,1017.63
2019-02-17T02:28:26.270Z,1017.64
2019-02-17T02:29:26.288Z,1017.59
2019-02-17T02:30:26.260Z,1017.60
2019-02-17T02:31:26.270Z,1017.58
2019-02-17T02:32:26.249Z,1017.60
2019-02-17T02:33:26.214Z,1017.55
2019-02-17T02:34:26.204Z,1017.53
2019-02-17T02:35:26.214Z,1017.52
2019-02-17T02:36:26.180Z,1017.54
2019-02-17T02:37:26.196Z,1017.52
2019-02-17T02:38:26.169Z,1017.50
2019-02-17T02:39:26.163Z,1017.48
2019-02-17T02:40:26.162Z,1017.46
2019-02-17T02:41:34.177Z,1017.48
2019-02-17T02:42:27.135Z,1017.48
2019-02-17T02:43:26.104Z,1017.48
2019-02-17T02:44:26.113Z,1017.44
2019-02-17T02:45:26.115Z,1017.43
2019-02-17T02:46:26.067Z,1017.41
2019-02-17T02:47:26.065Z,1017.41
2019-02-17T02:48:26.057Z,1017.39
2019-02-17T02:49:26.046Z,1017.43
2019-02-17T02:50:26.028Z,1017.43
2019-02-17T02:51:26.075Z,1017.44
2019-02-17T02:52:26.005Z,1017.45
2019-02-17T02:53:25.998Z,1017.44
2019-02-17T02:54:25.975Z,1017.43
2019-02-17T02:55:25.976Z,1017.44
2019-02-17T02:56:25.955Z,1017.44
2019-02-17T02:57:26.061Z,1017.41
2019-02-17T02:58:26.012Z,1017.35
2019-02-17T02:59:25.935Z,1017.42
2019-02-17T03:00:25.909Z,1017.36
2019-02-17T03:01:25.931Z,1017.35
2019-02-17T03:02:25.895Z,1017.35
2019-02-17T03:03:25.944Z,1017.37
2019-02-17T03:04:25.865Z,1017.36
2019-02-17T03:05:25.852Z,1017.30
2019-02-17T03:06:25.866Z,1017.33
2019-02-17T03:07:25.844Z,1017.30
2019-02-17T03:08:25.834Z,1017.32
2019-02-17T03:09:25.831Z,1017.32
2019-02-17T03:10:25.801Z,1017.27
2019-02-17T03:11:25.793Z,1017.27
2019-02-17T03:12:25.775Z,1017.28
2019-02-17T03:13:25.777Z,1017.37
2019-02-17T03:14:25.755Z,1017.28
2019-02-17T03:15:25.743Z,1017.30
2019-02-17T03:16:25.742Z,1017.29
2019-02-17T03:17:25.783Z,1017.26
2019-02-17T03:18:25.721Z,1017.28
2019-02-17T03:19:25.729Z,1017.29
2019-02-17T03:20:25.688Z,1017.27
2019-02-17T03:21:25.675Z,1017.24
2019-02-17T03:22:25.684Z,1017.29
2019-02-17T03:23:25.699Z,1017.28
2019-02-17T03:24:25.677Z,1017.26
2019-02-17T03:25:25.632Z,1017.27
2019-02-17T03:26:25.635Z,1017.24
2019-02-17T03:27:25.641Z,1017.22
2019-02-17T03:28:25.628Z,1017.26
2019-02-17T03:29:25.587Z,1017.23
2019-02-17T03:30:25.592Z,1017.23
2019-02-17T03:31:25.568Z,1017.23
2019-02-17T03:32:25.572Z,1017.21
2019-02-17T03:33:25.561Z,1017.20
2019-02-17T03:34:25.577Z,1017.26
2019-02-17T03:35:25.521Z,1017.26
2019-02-17T03:36:25.541Z,1017.22
2019-02-17T03:37:25.512Z,1017.17
2019-02-17T03:38:25.513Z,1017.17
2019-02-17T03:39:25.541Z,1017.18
2019-02-17T03:40:25.468Z,1017.21
2019-02-17T03:41:25.456Z,1017.19
2019-02-17T03:42:25.463Z,1017.20
2019-02-17T03:43:25.435Z,1017.17
2019-02-17T03:44:25.460Z,1017.18
2019-02-17T03:45:25.433Z,1017.15
2019-02-17T03:46:25.400Z,1017.14
2019-02-17T03:47:25.400Z,1017.12
2019-02-17T03:48:25.408Z,1017.11
2019-02-17T03:49:25.418Z,1017.12
2019-02-17T03:50:25.389Z,1017.12
2019-02-17T03:51:25.392Z,1017.11
2019-02-17T03:52:25.365Z,1017.09
2019-02-17T03:53:25.389Z,1017.11
2019-02-17T03:54:25.322Z,1017.09
2019-02-17T03:55:25.299Z,1017.11
2019-02-17T03:56:25.295Z,1017.14
2019-02-17T03:57:25.413Z,1017.09
2019-02-17T03:58:25.277Z,1017.13
2019-02-17T03:59:25.271Z,1017.11
2019-02-17T04:00:25.257Z,1017.09
2019-02-17T04:01:25.235Z,1017.10
2019-02-17T04:02:25.250Z,1017.12
2019-02-17T04:03:25.214Z,1017.13
2019-02-17T04:04:25.231Z,1017.08
2019-02-17T04:05:25.189Z,1017.10
2019-02-17T04:06:25.179Z,1017.08
2019-02-17T04:07:25.200Z,1017.10
2019-02-17T04:08:25.221Z,1017.12
2019-02-17T04:09:25.187Z,1017.11
2019-02-17T04:10:25.139Z,1017.10
2019-02-17T04:11:25.132Z,1017.09
2019-02-17T04:12:25.111Z,1017.07
2019-02-17T04:13:25.119Z,1017.06
2019-02-17T04:14:25.116Z,1017.07
2019-02-17T04:15:25.078Z,1017.09
2019-02-17T04:16:25.064Z,1017.08
2019-02-17T04:17:25.055Z,1017.05
2019-02-17T04:18:25.052Z,1017.06
2019-02-17T04:19:25.183Z,1017.05
2019-02-17T04:20:25.025Z,1017.03
2019-02-17T04:21:25.012Z,1017.05
2019-02-17T04:22:25.004Z,1017.07
2019-02-17T04:23:31.319Z,1017.07
2019-02-17T04:24:26.010Z,1017.03
2019-02-17T04:25:24.974Z,1017.05
2019-02-17T04:26:24.955Z,1017.04
2019-02-17T04:27:25.032Z,1016.98
2019-02-17T04:28:24.941Z,1016.96
2019-02-17T04:29:24.931Z,1016.98
2019-02-17T04:30:29.334Z,1016.99
2019-02-17T04:31:24.900Z,1016.96
2019-02-17T04:32:24.890Z,1016.94
2019-02-17T04:33:24.878Z,1016.94
2019-02-17T04:34:24.875Z,1016.96
2019-02-17T04:35:24.858Z,1016.95
2019-02-17T04:36:24.877Z,1016.89
2019-02-17T04:37:24.885Z,1016.90
2019-02-17T04:38:24.844Z,1016.87
2019-02-17T04:39:24.827Z,1016.89
2019-02-17T04:40:24.823Z,1016.87
2019-02-17T04:41:24.796Z,1016.86
2019-02-17T04:42:24.821Z,1016.86
2019-02-17T04:43:24.784Z,1016.87
2019-02-17T04:44:24.769Z,1016.91
2019-02-17T04:45:24.769Z,1016.84
2019-02-17T04:46:24.761Z,1016.89
2019-02-17T04:47:24.750Z,1016.83
2019-02-17T04:48:24.731Z,1016.84
2019-02-17T04:49:24.768Z,1016.88
2019-02-17T04:50:24.697Z,1016.86
2019-02-17T04:51:24.677Z,1016.85
2019-02-17T04:52:24.704Z,1016.82
2019-02-17T04:53:24.698Z,1016.84
2019-02-17T04:54:24.661Z,1016.83
2019-02-17T04:55:24.640Z,1016.81
2019-02-17T04:56:24.621Z,1016.83
2019-02-17T04:57:24.668Z,1016.81
2019-02-17T04:58:24.608Z,1016.81
2019-02-17T04:59:24.600Z,1016.82
2019-02-17T05:00:24.609Z,1016.83
2019-02-17T05:01:24.568Z,1016.81
2019-02-17T05:02:24.563Z,1016.79
2019-02-17T05:03:24.553Z,1016.79
2019-02-17T05:04:24.553Z,1016.76
2019-02-17T05:05:24.541Z,1016.77
2019-02-17T05:06:24.541Z,1016.77
2019-02-17T05:07:24.501Z,1016.77
2019-02-17T05:08:24.491Z,1016.79
2019-02-17T05:09:24.486Z,1016.77
2019-02-17T05:10:24.484Z,1016.77
2019-02-17T05:11:24.456Z,1016.75
2019-02-17T05:12:24.465Z,1016.72
2019-02-17T05:13:24.466Z,1016.71
2019-02-17T05:14:24.436Z,1016.75
2019-02-17T05:15:24.421Z,1016.72
2019-02-17T05:16:24.406Z,1016.73
2019-02-17T05:17:24.391Z,1016.78
2019-02-17T05:18:24.415Z,1016.73
2019-02-17T05:19:24.367Z,1016.75
2019-02-17T05:20:24.394Z,1016.75
2019-02-17T05:21:24.353Z,1016.75
2019-02-17T05:22:24.335Z,1016.77
2019-02-17T05:23:24.324Z,1016.77
2019-02-17T05:24:24.316Z,1016.75
2019-02-17T05:25:24.308Z,1016.81
2019-02-17T05:26:24.311Z,1016.78
2019-02-17T05:27:24.312Z,1016.81
2019-02-17T05:28:24.269Z,1016.81
2019-02-17T05:29:24.255Z,1016.79
2019-02-17T05:30:24.255Z,1016.74
2019-02-17T05:31:24.249Z,1016.78
2019-02-17T05:32:24.236Z,1016.77
2019-02-17T05:33:24.260Z,1016.72
2019-02-17T05:34:24.205Z,1016.74
2019-02-17T05:35:24.217Z,1016.75
2019-02-17T05:36:24.178Z,1016.72
2019-02-17T05:37:24.184Z,1016.71
2019-02-17T05:38:24.178Z,1016.71
2019-02-17T05:39:24.145Z,1016.72
2019-02-17T05:40:24.155Z,1016.69
2019-02-17T05:41:24.133Z,1016.73
2019-02-17T05:42:24.131Z,1016.70
2019-02-17T05:43:24.141Z,1016.72
2019-02-17T05:44:24.116Z,1016.70
2019-02-17T05:45:24.088Z,1016.66
2019-02-17T05:46:24.068Z,1016.69
2019-02-17T05:47:24.083Z,1016.67
2019-02-17T05:48:24.045Z,1016.69
2019-02-17T05:49:24.048Z,1016.68
2019-02-17T05:50:24.046Z,1016.68
2019-02-17T05:51:24.010Z,1016.64
2019-02-17T05:52:24.001Z,1016.63
2019-02-17T05:53:24.000Z,1016.59
2019-02-17T05:54:23.984Z,1016.60
2019-02-17T05:55:23.989Z,1016.58
2019-02-17T05:56:23.968Z,1016.57
2019-02-17T05:57:24.100Z,1016.54
2019-02-17T05:58:23.971Z,1016.56
2019-02-17T05:59:23.933Z,1016.58
2019-02-17T06:00:23.912Z,1016.60
2019-02-17T06:01:23.933Z,1016.57
2019-02-17T06:02:23.938Z,1016.54
2019-02-17T06:03:23.879Z,1016.59
2019-02-17T06:04:23.872Z,1016.57
2019-02-17T06:05:23.856Z,1016.55
2019-02-17T06:06:23.859Z,1016.52
2019-02-17T06:07:23.843Z,1016.54
2019-02-17T06:08:23.857Z,1016.51
2019-02-17T06:09:23.862Z,1016.56
2019-02-17T06:10:23.801Z,1016.57
2019-02-17T06:11:23.804Z,1016.54
2019-02-17T06:12:23.779Z,1016.55
2019-02-17T06:13:23.770Z,1016.57
2019-02-17T06:14:23.764Z,1016.56
2019-02-17T06:15:23.751Z,1016.55
2019-02-17T06:16:23.755Z,1016.55
2019-02-17T06:17:23.725Z,1016.58
2019-02-17T06:18:23.733Z,1016.57
2019-02-17T06:19:23.750Z,1016.58
2019-02-17T06:20:23.703Z,1016.59
2019-02-17T06:21:23.697Z,1016.58
2019-02-17T06:22:23.669Z,1016.57
2019-02-17T06:23:23.674Z,1016.57
2019-02-17T06:24:23.699Z,1016.56
2019-02-17T06:25:23.661Z,1016.60
2019-02-17T06:26:23.660Z,1016.55
2019-02-17T06:27:23.638Z,1016.55
2019-02-17T06:28:23.627Z,1016.58
2019-02-17T06:29:23.612Z,1016.64
2019-02-17T06:30:23.581Z,1016.61
2019-02-17T06:31:23.603Z,1016.60
2019-02-17T06:32:23.594Z,1016.59
2019-02-17T06:33:23.554Z,1016.61
2019-02-17T06:34:23.538Z,1016.58
2019-02-17T06:35:23.549Z,1016.61
2019-02-17T06:36:23.549Z,1016.64
2019-02-17T06:37:23.538Z,1016.59
2019-02-17T06:38:23.490Z,1016.65
2019-02-17T06:39:23.496Z,1016.62
2019-02-17T06:40:23.501Z,1016.64
2019-02-17T06:41:23.465Z,1016.67
2019-02-17T06:42:23.449Z,1016.66
2019-02-17T06:43:23.438Z,1016.64
2019-02-17T06:44:23.435Z,1016.66
2019-02-17T06:45:23.434Z,1016.67
2019-02-17T06:46:23.438Z,1016.67
2019-02-17T06:47:23.390Z,1016.68
2019-02-17T06:48:23.384Z,1016.71
2019-02-17T06:49:23.377Z,1016.69
2019-02-17T06:50:23.357Z,1016.69
2019-02-17T06:51:23.359Z,1016.67
2019-02-17T06:52:23.345Z,1016.65
2019-02-17T06:53:23.323Z,1016.63
2019-02-17T06:54:23.319Z,1016.65
2019-02-17T06:55:23.305Z,1016.66
2019-02-17T06:56:23.292Z,1016.65
2019-02-17T06:57:23.350Z,1016.59
2019-02-17T06:58:23.293Z,1016.59
2019-02-17T06:59:23.265Z,1016.59
2019-02-17T07:00:23.252Z,1016.59
2019-02-17T07:01:24.902Z,1016.64
2019-02-17T07:02:23.240Z,1016.61
2019-02-17T07:03:23.262Z,1016.64
2019-02-17T07:04:23.286Z,1016.60
2019-02-17T07:05:23.221Z,1016.64
2019-02-17T07:06:23.203Z,1016.63
2019-02-17T07:07:23.186Z,1016.66
2019-02-17T07:08:23.183Z,1016.60
2019-02-17T07:09:23.160Z,1016.63
2019-02-17T07:10:23.163Z,1016.64
2019-02-17T07:11:23.526Z,1016.62
2019-02-17T07:12:23.145Z,1016.64
2019-02-17T07:13:23.117Z,1016.62
2019-02-17T07:14:23.112Z,1016.59
2019-02-17T07:15:23.098Z,1016.63
2019-02-17T07:16:23.075Z,1016.59
2019-02-17T07:17:23.094Z,1016.59
2019-02-17T07:18:23.173Z,1016.60
2019-02-17T07:19:23.120Z,1016.56
2019-02-17T07:20:23.029Z,1016.59
2019-02-17T07:21:23.032Z,1016.58
2019-02-17T07:22:23.065Z,1016.59
2019-02-17T07:23:22.993Z,1016.59
2019-02-17T07:24:22.981Z,1016.60
2019-02-17T07:25:29.679Z,1016.64
2019-02-17T07:26:23.989Z,1016.59
2019-02-17T07:27:23.113Z,1016.58
2019-02-17T07:28:22.943Z,1016.58
2019-02-17T07:29:22.934Z,1016.56
2019-02-17T07:30:22.915Z,1016.54
2019-02-17T07:31:22.948Z,1016.62
2019-02-17T07:32:22.910Z,1016.57
2019-02-17T07:33:22.881Z,1016.59
2019-02-17T07:34:22.873Z,1016.58
2019-02-17T07:35:22.864Z,1016.54
2019-02-17T07:36:22.847Z,1016.56
2019-02-17T07:37:32.793Z,1016.50
2019-02-17T07:38:23.831Z,1016.56
2019-02-17T07:39:22.851Z,1016.53
2019-02-17T07:40:22.804Z,1016.54
2019-02-17T07:41:22.801Z,1016.53
2019-02-17T07:42:22.844Z,1016.54
2019-02-17T07:43:22.844Z,1016.54
2019-02-17T07:44:22.759Z,1016.56
2019-02-17T07:45:22.766Z,1016.57
2019-02-17T07:46:22.744Z,1016.59
2019-02-17T07:47:22.730Z,1016.61
2019-02-17T07:48:22.745Z,1016.62
2019-02-17T07:49:22.720Z,1016.65
2019-02-17T07:50:22.697Z,1016.64
2019-02-17T07:51:22.700Z,1016.63
2019-02-17T07:52:22.673Z,1016.63
2019-02-17T07:53:22.670Z,1016.64
2019-02-17T07:54:22.648Z,1016.66
2019-02-17T07:55:22.650Z,1016.64
2019-02-17T07:56:22.639Z,1016.66
2019-02-17T07:57:22.753Z,1016.65
2019-02-17T07:58:22.629Z,1016.65
2019-02-17T07:59:22.596Z,1016.63
2019-02-17T08:00:22.594Z,1016.67
2019-02-17T08:01:22.577Z,1016.63
2019-02-17T08:02:22.574Z,1016.61
2019-02-17T08:03:22.586Z,1016.59
2019-02-17T08:04:22.540Z,1016.56
2019-02-17T08:05:22.526Z,1016.61
2019-02-17T08:06:22.515Z,1016.63
2019-02-17T08:07:22.515Z,1016.59
2019-02-17T08:08:22.507Z,1016.60
2019-02-17T08:09:22.500Z,1016.65
2019-02-17T08:10:22.482Z,1016.60
2019-02-17T08:11:22.465Z,1016.62
2019-02-17T08:12:22.454Z,1016.64
2019-02-17T08:13:22.457Z,1016.59
2019-02-17T08:14:22.425Z,1016.64
2019-02-17T08:15:22.454Z,1016.62
2019-02-17T08:16:22.425Z,1016.61
2019-02-17T08:17:22.401Z,1016.60
2019-02-17T08:18:22.394Z,1016.64
2019-02-17T08:19:22.374Z,1016.65
2019-02-17T08:20:22.361Z,1016.63
2019-02-17T08:21:22.352Z,1016.58
2019-02-17T08:22:22.363Z,1016.61
2019-02-17T08:23:22.355Z,1016.59
2019-02-17T08:24:22.317Z,1016.60
2019-02-17T08:25:22.365Z,1016.58
2019-02-17T08:26:22.380Z,1016.60
2019-02-17T08:27:22.355Z,1016.56
2019-02-17T08:28:22.312Z,1016.57
2019-02-17T08:29:22.263Z,1016.54
2019-02-17T08:30:22.275Z,1016.54
2019-02-17T08:31:22.248Z,1016.52
2019-02-17T08:32:22.290Z,1016.53
2019-02-17T08:33:22.242Z,1016.49
2019-02-17T08:34:22.208Z,1016.51
2019-02-17T08:35:22.199Z,1016.52
2019-02-17T08:36:22.206Z,1016.50
2019-02-17T08:37:22.210Z,1016.48
2019-02-17T08:38:22.172Z,1016.48
2019-02-17T08:39:22.196Z,1016.50
2019-02-17T08:40:22.149Z,1016.47
2019-02-17T08:41:22.140Z,1016.42
2019-02-17T08:42:22.122Z,1016.43
2019-02-17T08:43:22.109Z,1016.44
2019-02-17T08:44:22.142Z,1016.44
2019-02-17T08:45:22.109Z,1016.41
2019-02-17T08:46:22.085Z,1016.39
2019-02-17T08:47:22.088Z,1016.40
2019-02-17T08:48:22.062Z,1016.39
2019-02-17T08:49:22.066Z,1016.38
2019-02-17T08:50:22.033Z,1016.37
2019-02-17T08:51:22.016Z,1016.38
2019-02-17T08:52:22.037Z,1016.32
2019-02-17T08:53:22.022Z,1016.35
2019-02-17T08:54:21.999Z,1016.31
2019-02-17T08:55:21.981Z,1016.28
2019-02-17T08:56:21.973Z,1016.28
2019-02-17T08:57:22.005Z,1016.25
2019-02-17T08:58:22.005Z,1016.28
2019-02-17T08:59:21.949Z,1016.18
2019-02-17T09:00:21.925Z,1016.14
2019-02-17T09:01:21.923Z,1016.16
2019-02-17T09:02:21.917Z,1016.13
2019-02-17T09:03:21.897Z,1016.13
2019-02-17T09:04:21.997Z,1016.12
2019-02-17T09:05:21.914Z,1016.10
2019-02-17T09:06:21.873Z,1016.11
2019-02-17T09:07:21.864Z,1016.09
2019-02-17T09:08:21.829Z,1016.07
2019-02-17T09:09:21.836Z,1016.12
2019-02-17T09:10:21.815Z,1016.13
2019-02-17T09:11:21.803Z,1016.12
2019-02-17T09:12:21.786Z,1016.10
2019-02-17T09:13:21.822Z,1016.10
2019-02-17T09:14:21.793Z,1016.10
2019-02-17T09:15:21.814Z,1016.11
2019-02-17T09:16:21.812Z,1016.15
2019-02-17T09:17:21.740Z,1016.08
2019-02-17T09:18:21.755Z,1016.08
2019-02-17T09:19:21.729Z,1016.10
2019-02-17T09:20:21.724Z,1016.11
2019-02-17T09:21:21.707Z,1016.13
2019-02-17T09:22:21.672Z,1016.11
2019-02-17T09:23:21.693Z,1016.14
2019-02-17T09:24:21.660Z,1016.13
2019-02-17T09:25:21.661Z,1016.15
2019-02-17T09:26:21.643Z,1016.09
2019-02-17T09:27:21.666Z,1016.08
2019-02-17T09:28:21.609Z,1016.10
2019-02-17T09:29:21.611Z,1016.07
2019-02-17T09:30:21.597Z,1016.10
2019-02-17T09:31:21.576Z,1016.02
2019-02-17T09:32:21.584Z,1016.06
2019-02-17T09:33:21.553Z,1016.03
2019-02-17T09:34:21.572Z,1016.01
2019-02-17T09:35:21.529Z,1016.04
2019-02-17T09:36:21.520Z,1016.00
2019-02-17T09:37:21.533Z,1015.98
2019-02-17T09:38:21.543Z,1015.99
2019-02-17T09:39:21.591Z,1015.96
2019-02-17T09:40:21.479Z,1015.97
2019-02-17T09:41:21.462Z,1016.00
2019-02-17T09:42:21.461Z,1015.97
2019-02-17T09:43:21.449Z,1015.94
2019-02-17T09:44:21.465Z,1015.97
2019-02-17T09:45:21.417Z,1015.98
2019-02-17T09:46:21.404Z,1015.94
2019-02-17T09:47:21.398Z,1015.94
2019-02-17T09:48:21.389Z,1015.89
2019-02-17T09:49:21.389Z,1015.86
2019-02-17T09:50:21.362Z,1015.91
2019-02-17T09:51:21.354Z,1015.92
2019-02-17T09:52:21.364Z,1015.93
2019-02-17T09:53:21.329Z,1015.91
2019-02-17T09:54:21.344Z,1015.94
2019-02-17T09:55:21.308Z,1015.99
2019-02-17T09:56:21.309Z,1015.93
2019-02-17T09:57:26.196Z,1015.95
2019-02-17T09:58:21.296Z,1015.98
2019-02-17T09:59:21.263Z,1015.95
2019-02-17T10:00:21.259Z,1015.96
2019-02-17T10:01:21.242Z,1016.00
2019-02-17T10:02:26.449Z,1016.01
2019-02-17T10:03:22.230Z,1015.95
2019-02-17T10:04:21.232Z,1015.98
2019-02-17T10:05:21.213Z,1015.96
2019-02-17T10:06:21.181Z,1016.00
2019-02-17T10:07:21.174Z,1016.00
2019-02-17T10:08:21.168Z,1015.96
2019-02-17T10:09:21.152Z,1015.92
2019-02-17T10:10:21.227Z,1015.97
2019-02-17T10:11:21.133Z,1015.93
2019-02-17T10:12:21.116Z,1015.92
2019-02-17T10:13:21.116Z,1015.91
2019-02-17T10:14:21.100Z,1015.89
2019-02-17T10:15:21.093Z,1015.89
2019-02-17T10:16:21.089Z,1015.83
2019-02-17T10:17:21.074Z,1015.89
2019-02-17T10:18:21.057Z,1015.90
2019-02-17T10:19:21.042Z,1015.87
2019-02-17T10:20:21.043Z,1015.89
2019-02-17T10:21:21.017Z,1015.91
2019-02-17T10:22:21.023Z,1015.90
2019-02-17T10:23:21.004Z,1015.87
2019-02-17T10:24:20.983Z,1015.88
2019-02-17T10:25:20.983Z,1015.87
2019-02-17T10:26:20.965Z,1015.89
2019-02-17T10:27:21.025Z,1015.86
2019-02-17T10:28:20.951Z,1015.93
2019-02-17T10:29:20.981Z,1015.82
2019-02-17T10:30:20.935Z,1015.84
2019-02-17T10:31:20.908Z,1015.77
2019-02-17T10:32:20.900Z,1015.77
2019-02-17T10:33:20.893Z,1015.79
2019-02-17T10:34:20.881Z,1015.77
2019-02-17T10:35:20.888Z,1015.79
2019-02-17T10:36:20.865Z,1015.75
2019-02-17T10:37:20.860Z,1015.76
2019-02-17T10:38:20.858Z,1015.77
2019-02-17T10:39:20.833Z,1015.71
2019-02-17T10:40:20.870Z,1015.73
2019-02-17T10:41:20.827Z,1015.71
2019-02-17T10:42:20.831Z,1015.70
2019-02-17T10:43:20.834Z,1015.67
2019-02-17T10:44:20.785Z,1015.63
2019-02-17T10:45:20.820Z,1015.60
2019-02-17T10:46:20.745Z,1015.61
2019-02-17T10:47:20.736Z,1015.63
2019-02-17T10:48:20.734Z,1015.61
2019-02-17T10:49:20.733Z,1015.62
2019-02-17T10:50:20.700Z,1015.60
2019-02-17T10:51:20.726Z,1015.60
2019-02-17T10:52:20.674Z,1015.59
2019-02-17T10:53:20.679Z,1015.58
2019-02-17T10:54:22.937Z,1015.57
2019-02-17T10:55:20.657Z,1015.59
2019-02-17T10:56:20.638Z,1015.50
2019-02-17T10:57:20.625Z,1015.53
2019-02-17T10:58:20.634Z,1015.49
2019-02-17T10:59:20.599Z,1015.44
2019-02-17T11:00:20.591Z,1015.46
2019-02-17T11:01:20.590Z,1015.47
2019-02-17T11:02:20.566Z,1015.45
2019-02-17T11:03:20.567Z,1015.44
2019-02-17T11:04:20.579Z,1015.40
2019-02-17T11:05:20.534Z,1015.41
2019-02-17T11:06:20.550Z,1015.39
2019-02-17T11:07:20.526Z,1015.45
2019-02-17T11:08:20.498Z,1015.44
2019-02-17T11:09:20.485Z,1015.41
2019-02-17T11:10:20.507Z,1015.41
2019-02-17T11:11:20.505Z,1015.37
2019-02-17T11:12:20.456Z,1015.40
2019-02-17T11:13:20.444Z,1015.35
2019-02-17T11:14:20.434Z,1015.30
2019-02-17T11:15:20.425Z,1015.31
2019-02-17T11:16:20.440Z,1015.25
2019-02-17T11:17:20.398Z,1015.27
2019-02-17T11:18:20.442Z,1015.29
2019-02-17T11:19:20.377Z,1015.24
2019-02-17T11:20:20.374Z,1015.28
2019-02-17T11:21:20.361Z,1015.27
2019-02-17T11:22:23.208Z,1015.25
2019-02-17T11:23:20.371Z,1015.30
2019-02-17T11:24:20.326Z,1015.26
2019-02-17T11:25:20.307Z,1015.22
2019-02-17T11:26:20.306Z,1015.22
2019-02-17T11:27:20.298Z,1015.22
2019-02-17T11:28:20.275Z,1015.17
2019-02-17T11:29:20.299Z,1015.18
2019-02-17T11:30:20.252Z,1015.14
2019-02-17T11:31:20.248Z,1015.13
2019-02-17T11:32:20.232Z,1015.14
2019-02-17T11:33:20.284Z,1015.12
2019-02-17T11:34:20.216Z,1015.10
2019-02-17T11:35:20.221Z,1015.08
2019-02-17T11:36:20.304Z,1015.06
2019-02-17T11:37:20.176Z,1015.03
2019-02-17T11:38:20.200Z,1015.07
2019-02-17T11:39:20.164Z,1015.10
2019-02-17T11:40:20.143Z,1015.04
2019-02-17T11:41:20.140Z,1015.03
2019-02-17T11:42:20.123Z,1015.00
2019-02-17T11:43:20.134Z,1015.00
2019-02-17T11:44:20.112Z,1015.00
2019-02-17T11:45:20.097Z,1014.98
2019-02-17T11:46:20.096Z,1014.97
2019-02-17T11:47:20.067Z,1014.98
2019-02-17T11:48:20.055Z,1014.95
2019-02-17T11:49:20.065Z,1014.96
2019-02-17T11:50:20.047Z,1014.97
2019-02-17T11:51:20.037Z,1014.90
2019-02-17T11:52:20.014Z,1014.94
2019-02-17T11:53:20.006Z,1014.90
2019-02-17T11:54:19.993Z,1014.90
2019-02-17T11:55:19.977Z,1014.89
2019-02-17T11:56:19.992Z,1014.85
2019-02-17T11:57:20.049Z,1014.85
2019-02-17T11:58:19.999Z,1014.82
2019-02-17T11:59:19.931Z,1014.79
2019-02-17T12:00:20.021Z,1014.78
2019-02-17T12:01:19.927Z,1014.77
2019-02-17T12:02:25.107Z,1014.75
2019-02-17T12:03:20.912Z,1014.73
2019-02-17T12:04:19.875Z,1014.78
2019-02-17T12:05:19.874Z,1014.74